Current Weather

Bangkok Intl

Bangkok Intl, Thailand (VTBD)

Report from: Thursday, April 25, 2024 2:00 AM +07
Current time: Thursday, April 25, 2024 2:32 AM +07

Nearby weather – Weather history – Daily summaries
Weather forecast

Temperature30.0°C (86.0°F)
Heat index37.5°C (99.5°F)
Dew point26.0°C (78.8°F)
Winds 7 kts (3.6 m/s, 8.1 mph) Vrb
Winds variableWinds variable from South-Southeast (150°) to South-Southwest (210°)
Visibility6.2 mi. (10 km)
Clouds Few clouds 3,000 ft. (914 m)
Altimeter29.74 in.Hg (1007 mB)
Relative humidity79 %
Density altitude2,377 ft. (724 m)
Remarks No significant changes expected in the next two hours
Flight conditions Visual Meteorological Conditions
Raw dataVTBD 241900Z 18007KT 150V210 9999 FEW030 30/26 Q1007 NOSIG
An error has occurred. This application may no longer respond until reloaded. Reload 🗙